Equality, Alabama
Current Conditions -  °F | °C
As of 12:35 AM on Monday 24 Nov 2014 (Local Time) from KALX Reporting Station
Overcast Overcast  
Wind Chill: 67°   Ceiling: 1400
Heat Index: 67°   Visibility: 10mi
Dew Point: 60°   Wind: 13mph
Humidity: 79%   Direction: 220°SW
Pressure: 29.75"   Gusts: 18mph
Location:  32.76°N, 86.1°W
Report Text: KALX 240635Z AUTO 22011G16KT 160V230 10SM OVC014 19/16 A2975 RMK AO2 T01930156
Loading
Personal Weather Stations






























Interactive Weather Map New forecast layout! Learn more

10-Day Weather Forecast

Advertisements
Track Severe Weather on mobile